createdAt,value
2022-11-16T00:04:25.968Z,11.35
2022-11-16T00:09:28.438Z,11.36
2022-11-16T00:14:19.645Z,11.34
2022-11-16T00:19:10.919Z,11.36
2022-11-16T00:24:04.222Z,11.36
2022-11-16T00:28:58.492Z,11.38
2022-11-16T00:33:49.474Z,11.36
2022-11-16T00:38:40.187Z,11.37
2022-11-16T00:43:33.518Z,11.38
2022-11-16T00:48:24.016Z,11.39
2022-11-16T00:53:16.165Z,11.39
2022-11-16T00:58:09.237Z,11.40
2022-11-16T01:03:02.979Z,11.36
2022-11-16T01:07:53.839Z,11.36
2022-11-16T01:12:45.356Z,11.38
2022-11-16T01:17:38.313Z,11.36
2022-11-16T01:22:31.616Z,11.31
2022-11-16T01:27:22.299Z,11.36
2022-11-16T01:32:13.539Z,11.36
2022-11-16T01:37:05.225Z,11.33
2022-11-16T01:42:03.404Z,11.32
2022-11-16T01:46:55.452Z,11.33
2022-11-16T01:51:49.644Z,11.33
2022-11-16T01:56:43.018Z,11.29
2022-11-16T02:01:40.246Z,11.29
2022-11-16T02:06:52.673Z,11.26
2022-11-16T02:11:57.715Z,11.26
2022-11-16T02:17:00.135Z,11.23
2022-11-16T02:22:07.523Z,11.18
2022-11-16T02:27:22.516Z,11.16
2022-11-16T02:32:18.522Z,11.15
2022-11-16T02:37:13.170Z,11.11
2022-11-16T02:42:05.208Z,11.08
2022-11-16T02:47:02.363Z,11.06
2022-11-16T02:51:56.980Z,11.03
2022-11-16T02:57:02.021Z,11.01
2022-11-16T03:01:57.362Z,10.99
2022-11-16T03:06:50.177Z,10.96
2022-11-16T03:11:59.463Z,10.91
2022-11-16T03:16:54.193Z,10.90
2022-11-16T03:21:47.165Z,10.89
2022-11-16T03:26:50.624Z,10.83
2022-11-16T03:31:49.874Z,10.80
2022-11-16T03:36:45.245Z,10.77
2022-11-16T03:41:39.815Z,10.75
2022-11-16T03:46:31.027Z,10.74
2022-11-16T03:51:25.492Z,10.72
2022-11-16T03:56:20.108Z,10.70
2022-11-16T04:01:11.076Z,10.67
2022-11-16T04:06:24.495Z,10.64
2022-11-16T04:11:30.320Z,10.61
2022-11-16T04:16:33.446Z,10.57
2022-11-16T04:21:38.269Z,10.56
2022-11-16T04:27:03.111Z,10.56
2022-11-16T04:32:06.160Z,10.51
2022-11-16T04:37:09.253Z,10.50
2022-11-16T04:42:14.589Z,10.45
2022-11-16T04:47:09.873Z,10.38
2022-11-16T04:52:14.193Z,10.34
2022-11-16T04:57:09.322Z,10.20
2022-11-16T05:02:12.816Z,10.21
2022-11-16T05:07:22.635Z,10.18
2022-11-16T05:12:18.957Z,10.11
2022-11-16T05:17:10.935Z,10.08
2022-11-16T05:22:04.364Z,10.00
2022-11-16T05:26:59.021Z,9.92
2022-11-16T05:31:53.326Z,9.87
2022-11-16T05:36:45.537Z,9.79
2022-11-16T05:41:36.760Z,9.70
2022-11-16T05:46:27.858Z,9.60
2022-11-16T05:51:27.353Z,9.53
2022-11-16T05:56:19.390Z,9.44
2022-11-16T06:01:09.849Z,9.37
2022-11-16T06:06:01.700Z,9.30
2022-11-16T06:10:56.931Z,9.23
2022-11-16T06:15:54.318Z,9.14
2022-11-16T06:20:45.573Z,9.07
2022-11-16T06:25:36.424Z,9.00
2022-11-16T06:30:30.582Z,8.93
2022-11-16T06:35:21.023Z,8.86
2022-11-16T06:40:17.118Z,8.79
2022-11-16T06:45:09.390Z,8.74
2022-11-16T06:50:07.070Z,8.66
2022-11-16T06:54:58.320Z,8.60
2022-11-16T06:59:50.762Z,8.52
2022-11-16T07:04:42.033Z,8.47
2022-11-16T07:09:35.200Z,8.41
2022-11-16T07:14:25.985Z,8.37
2022-11-16T07:19:16.972Z,8.36
2022-11-16T07:24:09.057Z,8.31
2022-11-16T07:29:02.765Z,8.29
2022-11-16T07:33:55.355Z,8.31
2022-11-16T07:39:11.386Z,8.31
2022-11-16T07:44:12.246Z,8.34
2022-11-16T07:49:11.646Z,8.35
2022-11-16T07:54:20.667Z,8.36
2022-11-16T07:59:20.578Z,8.38
2022-11-16T08:04:12.693Z,8.42
2022-11-16T08:09:03.073Z,8.49
2022-11-16T08:14:00.015Z,8.51
2022-11-16T08:18:53.994Z,8.56
2022-11-16T08:23:56.745Z,8.57
2022-11-16T08:28:51.621Z,8.58
2022-11-16T08:33:45.392Z,8.61
2022-11-16T08:38:40.833Z,8.65
2022-11-16T08:43:32.376Z,8.68
2022-11-16T08:48:24.003Z,8.76
2022-11-16T08:53:18.391Z,8.84
2022-11-16T08:58:11.666Z,8.91
2022-11-16T09:03:03.828Z,8.99
2022-11-16T09:07:56.560Z,9.07
2022-11-16T09:12:46.787Z,9.16
2022-11-16T09:17:40.065Z,9.22
2022-11-16T09:22:30.620Z,9.38
2022-11-16T09:27:23.059Z,9.89
2022-11-16T09:32:16.934Z,10.34
2022-11-16T09:37:13.880Z,10.68
2022-11-16T09:42:10.664Z,10.94
2022-11-16T09:47:04.152Z,11.13
2022-11-16T09:51:56.894Z,11.38
2022-11-16T09:56:54.633Z,11.70
2022-11-16T10:01:51.394Z,12.12
2022-11-16T10:06:49.945Z,12.58
2022-11-16T10:11:56.764Z,12.69
2022-11-16T10:16:55.081Z,12.65
2022-11-16T10:21:55.636Z,12.54
2022-11-16T10:26:52.975Z,12.43
2022-11-16T10:31:57.937Z,12.27
2022-11-16T10:36:49.158Z,12.28
2022-11-16T10:41:43.294Z,12.34
2022-11-16T10:46:37.771Z,12.48
2022-11-16T10:51:32.215Z,12.46
2022-11-16T10:56:26.215Z,12.35
2022-11-16T11:01:16.444Z,12.36
2022-11-16T11:06:14.721Z,12.19
2022-11-16T11:11:20.995Z,11.94
2022-11-16T11:16:20.470Z,11.69
2022-11-16T11:21:11.532Z,11.56
2022-11-16T11:26:07.419Z,11.45
2022-11-16T11:31:05.769Z,11.32
2022-11-16T11:36:11.008Z,11.30
2022-11-16T11:41:07.009Z,11.30
2022-11-16T11:46:22.607Z,11.33
2022-11-16T11:51:16.133Z,11.38
2022-11-16T11:56:07.212Z,11.45
2022-11-16T12:01:05.799Z,11.51
2022-11-16T12:06:28.489Z,11.50
2022-11-16T12:11:27.735Z,11.50
2022-11-16T12:16:31.568Z,11.48
2022-11-16T12:21:26.123Z,11.47
2022-11-16T12:26:22.272Z,11.66
2022-11-16T12:31:25.355Z,11.72
2022-11-16T12:36:24.699Z,11.65
2022-11-16T12:41:38.762Z,11.63
2022-11-16T12:46:39.443Z,11.61
2022-11-16T12:51:43.035Z,11.57
2022-11-16T12:56:47.463Z,11.52
2022-11-16T13:01:45.151Z,11.47
2022-11-16T13:06:42.196Z,11.44
2022-11-16T13:11:38.192Z,11.48
2022-11-16T13:16:29.498Z,11.56
2022-11-16T13:21:36.190Z,11.56
2022-11-16T13:26:34.423Z,11.53
2022-11-16T13:31:30.959Z,11.49
2022-11-16T13:36:37.280Z,11.46
2022-11-16T13:41:34.287Z,11.44
2022-11-16T13:46:54.041Z,11.41
2022-11-16T13:51:35.343Z,11.43
2022-11-16T13:56:29.214Z,11.40
2022-11-16T14:01:24.214Z,11.38
2022-11-16T14:06:29.315Z,11.39
2022-11-16T14:11:34.653Z,11.43
2022-11-16T14:16:45.408Z,11.52
2022-11-16T14:21:43.533Z,11.57
2022-11-16T14:26:42.358Z,11.54
2022-11-16T14:31:50.639Z,11.50
2022-11-16T14:36:41.722Z,11.44
2022-11-16T14:41:32.204Z,11.37
2022-11-16T14:46:26.184Z,11.34
2022-11-16T14:51:22.661Z,11.30
2022-11-16T14:56:13.595Z,11.34
2022-11-16T15:01:06.847Z,11.36
2022-11-16T15:06:01.995Z,11.37
2022-11-16T15:10:55.716Z,11.29
2022-11-16T15:15:49.710Z,11.19
2022-11-16T15:20:49.801Z,11.11
2022-11-16T15:25:48.748Z,11.04
2022-11-16T15:30:52.880Z,10.94
2022-11-16T15:35:56.678Z,10.85
2022-11-16T15:40:50.471Z,10.78
2022-11-16T15:45:46.182Z,10.71
2022-11-16T15:50:36.696Z,10.64
2022-11-16T15:55:29.022Z,10.55
2022-11-16T16:00:25.699Z,10.47
2022-11-16T16:05:35.669Z,10.38
2022-11-16T16:10:28.394Z,10.30
2022-11-16T16:15:27.595Z,10.24
2022-11-16T16:20:22.661Z,10.18
2022-11-16T16:25:27.577Z,10.14
2022-11-16T16:30:29.364Z,10.08
2022-11-16T16:35:20.833Z,10.05
2022-11-16T16:40:14.734Z,10.03
2022-11-16T16:45:05.695Z,10.02
2022-11-16T16:49:59.800Z,10.03
2022-11-16T16:54:50.407Z,10.01
2022-11-16T16:59:41.660Z,9.98
2022-11-16T17:04:32.887Z,9.94
2022-11-16T17:09:33.059Z,9.89
2022-11-16T17:14:29.588Z,9.86
2022-11-16T17:19:21.123Z,9.81
2022-11-16T17:24:12.123Z,9.79
2022-11-16T17:29:06.064Z,9.74
2022-11-16T17:33:58.844Z,9.70
2022-11-16T17:38:49.190Z,9.65
2022-11-16T17:43:39.413Z,9.61
2022-11-16T17:48:32.568Z,9.58
2022-11-16T17:53:26.145Z,9.55
2022-11-16T17:58:19.134Z,9.51
2022-11-16T18:03:12.389Z,9.49
2022-11-16T18:08:06.239Z,9.48
2022-11-16T18:12:57.019Z,9.49
2022-11-16T18:17:47.303Z,9.50
2022-11-16T18:22:37.743Z,9.50
2022-11-16T18:27:31.514Z,9.55
2022-11-16T18:32:21.979Z,9.60
2022-11-16T18:37:12.729Z,9.71
2022-11-16T18:42:05.528Z,9.77
2022-11-16T18:46:58.705Z,9.80
2022-11-16T18:51:49.096Z,9.76
2022-11-16T18:56:40.533Z,9.79
2022-11-16T19:01:31.276Z,9.85
2022-11-16T19:06:26.066Z,9.87
2022-11-16T19:11:19.324Z,9.91
2022-11-16T19:16:10.757Z,9.93
2022-11-16T19:21:09.476Z,9.93
2022-11-16T19:26:07.580Z,9.92
2022-11-16T19:30:57.990Z,9.91
2022-11-16T19:35:49.077Z,9.91
2022-11-16T19:40:39.880Z,9.91
2022-11-16T19:45:38.169Z,9.91
2022-11-16T19:50:29.507Z,9.90
2022-11-16T19:55:23.401Z,9.93
2022-11-16T20:00:15.104Z,9.93
2022-11-16T20:05:09.824Z,9.95
2022-11-16T20:10:03.411Z,9.94
2022-11-16T20:14:56.799Z,9.95
2022-11-16T20:19:47.013Z,9.94
2022-11-16T20:24:40.160Z,9.95
2022-11-16T20:29:30.511Z,9.94
2022-11-16T20:34:22.490Z,9.95
2022-11-16T20:39:16.552Z,9.96
2022-11-16T20:44:15.969Z,10.00
2022-11-16T20:49:21.221Z,10.02
2022-11-16T20:54:13.657Z,10.04
2022-11-16T20:59:03.760Z,10.04
2022-11-16T21:03:57.156Z,10.05
2022-11-16T21:08:50.644Z,10.05
2022-11-16T21:13:53.359Z,10.06
2022-11-16T21:18:47.298Z,10.08
2022-11-16T21:23:52.307Z,10.08
2022-11-16T21:28:45.147Z,10.07
2022-11-16T21:33:36.478Z,10.04
2022-11-16T21:38:29.313Z,10.01
2022-11-16T21:43:22.735Z,9.94
2022-11-16T21:48:14.089Z,9.89
2022-11-16T21:53:11.867Z,9.85
2022-11-16T21:58:04.295Z,9.83
2022-11-16T22:02:57.973Z,9.77
2022-11-16T22:07:48.064Z,9.71
2022-11-16T22:12:44.961Z,9.68
2022-11-16T22:17:38.662Z,9.62
2022-11-16T22:22:32.035Z,9.55
2022-11-16T22:27:22.895Z,9.52
2022-11-16T22:32:17.515Z,9.50
2022-11-16T22:37:07.826Z,9.49
2022-11-16T22:42:01.429Z,9.45
2022-11-16T22:46:53.120Z,9.43
2022-11-16T22:51:43.751Z,9.42
2022-11-16T22:56:38.969Z,9.43
2022-11-16T23:01:32.157Z,9.41
2022-11-16T23:06:27.060Z,9.42
2022-11-16T23:11:30.797Z,9.40
2022-11-16T23:16:21.340Z,9.39
2022-11-16T23:21:29.071Z,9.38
2022-11-16T23:26:45.455Z,9.37
2022-11-16T23:31:35.767Z,9.37
2022-11-16T23:36:32.388Z,9.37
2022-11-16T23:41:34.832Z,9.37
2022-11-16T23:46:25.246Z,9.40
2022-11-16T23:51:19.642Z,9.40
2022-11-16T23:56:12.828Z,9.44
